Time;durP1;ratioP1;P1;durP2;ratioP2;P2;SDS_P1;SDS_P2;PMS_P1;PMS_P2;Temp;Humidity;BMP_temperature;BMP_pressure;BME280_temperature;BME280_humidity;BME280_pressure;Samples;Min_cycle;Max_cycle;Signal;HPM_P1;HPM_P2
2021/04/09 00:01:21;;;;;;;10.23;7.15;;;2.80;99.90;;;;;;5074409;28;20265;-38
2021/04/09 00:03:48;;;;;;;10.48;7.03;;;2.90;99.90;;;;;;5073508;28;20306;-38
2021/04/09 00:06:16;;;;;;;12.32;7.50;;;2.90;99.90;;;;;;5073089;28;20205;-37
2021/04/09 00:08:43;;;;;;;9.50;7.00;;;2.80;99.90;;;;;;5073201;28;20504;-39
2021/04/09 00:11:09;;;;;;;9.02;6.85;;;2.70;99.90;;;;;;5073132;28;20195;-38
2021/04/09 00:13:36;;;;;;;11.85;7.07;;;2.70;99.90;;;;;;5072957;28;20249;-38
2021/04/09 00:16:03;;;;;;;9.73;6.68;;;2.70;99.90;;;;;;5072923;28;20191;-37
2021/04/09 00:18:31;;;;;;;8.90;8.17;;;2.70;99.90;;;;;;5073053;28;20636;-38
2021/04/09 00:20:58;;;;;;;10.70;7.97;;;2.60;99.90;;;;;;5072585;28;20194;-40
2021/04/09 00:23:25;;;;;;;11.32;7.85;;;2.50;99.90;;;;;;5072720;28;20264;-38
2021/04/09 00:25:52;;;;;;;9.63;7.13;;;2.30;99.90;;;;;;5072802;28;20586;-38
2021/04/09 00:28:19;;;;;;;7.60;6.43;;;2.30;99.90;;;;;;5072841;28;20210;-38
2021/04/09 00:30:46;;;;;;;8.50;6.88;;;2.40;99.90;;;;;;5072604;28;20503;-38
2021/04/09 00:33:13;;;;;;;8.60;6.93;;;2.50;99.90;;;;;;5072683;28;20214;-39
2021/04/09 00:35:43;;;;;;;8.98;6.82;;;2.60;99.90;;;;;;5072348;28;20206;-37
2021/04/09 00:38:10;;;;;;;10.70;7.80;;;2.60;99.90;;;;;;5072801;28;20275;-39
2021/04/09 00:40:38;;;;;;;15.32;7.55;;;2.70;99.90;;;;;;5072669;28;20194;-38
2021/04/09 00:43:07;;;;;;;7.38;6.28;;;2.90;99.90;;;;;;5072098;28;20771;-38
2021/04/09 00:45:33;;;;;;;10.25;5.97;;;2.80;99.90;;;;;;5072236;28;20292;-39
2021/04/09 00:48:00;;;;;;;6.55;5.93;;;2.90;99.90;;;;;;5072304;28;20285;-39
2021/04/09 00:50:27;;;;;;;11.47;6.20;;;3.00;99.90;;;;;;5072608;28;20195;-38
2021/04/09 00:52:55;;;;;;;9.70;6.88;;;3.00;99.90;;;;;;5070369;28;20764;-40
2021/04/09 00:55:22;;;;;;;10.35;5.72;;;3.00;99.90;;;;;;5072009;28;20195;-39
2021/04/09 00:57:51;;;;;;;8.90;6.20;;;2.90;99.90;;;;;;5072218;28;20202;-38
2021/04/09 01:00:19;;;;;;;10.00;6.00;;;2.90;99.90;;;;;;5072201;28;20194;-39
2021/04/09 01:02:46;;;;;;;10.85;6.00;;;3.00;99.90;;;;;;5071594;28;20246;-38
2021/04/09 01:05:15;;;;;;;7.27;6.57;;;3.10;99.90;;;;;;5071999;28;20626;-38
2021/04/09 01:07:43;;;;;;;7.67;6.73;;;3.10;99.90;;;;;;5071992;28;20297;-39
2021/04/09 01:10:12;;;;;;;9.07;6.43;;;3.10;99.90;;;;;;5071900;28;20207;-38
2021/04/09 01:12:38;;;;;;;11.23;6.55;;;3.10;99.90;;;;;;5071702;28;20289;-39
2021/04/09 01:15:09;;;;;;;9.20;6.10;;;3.20;99.90;;;;;;5071664;28;20198;-39
2021/04/09 01:17:40;;;;;;;7.85;6.80;;;3.20;99.90;;;;;;5071737;28;20277;-38
2021/04/09 01:20:35;;;;;;;18.88;6.47;;;3.30;99.90;;;;;;5071999;28;20229;-39
2021/04/09 01:23:12;;;;;;;7.80;5.93;;;3.40;99.90;;;;;;5072576;28;20257;-38
2021/04/09 01:26:08;;;;;;;8.70;6.20;;;3.40;99.90;;;;;;5071776;28;20201;-39
2021/04/09 01:28:50;;;;;;;12.93;7.03;;;3.40;99.90;;;;;;5071906;28;20277;-38
2021/04/09 01:31:35;;;;;;;6.53;5.90;;;3.60;99.90;;;;;;5071410;28;20213;-39
2021/04/09 01:34:03;;;;;;;7.43;6.18;;;3.60;99.90;;;;;;5071229;28;20210;-38
2021/04/09 01:36:37;;;;;;;8.10;6.28;;;3.60;99.90;;;;;;5071158;28;20202;-36
2021/04/09 01:39:08;;;;;;;6.97;6.30;;;3.60;99.90;;;;;;5071505;28;20254;-38
2021/04/09 01:41:38;;;;;;;8.02;5.95;;;3.60;99.90;;;;;;5071085;28;20214;-40
2021/04/09 01:44:08;;;;;;;8.00;6.38;;;3.50;99.90;;;;;;5071310;28;20774;-38
2021/04/09 01:46:39;;;;;;;10.57;6.28;;;3.50;99.90;;;;;;5071199;28;20203;-38
2021/04/09 01:49:08;;;;;;;8.45;6.57;;;3.50;99.90;;;;;;5071297;28;20229;-39
2021/04/09 01:51:36;;;;;;;12.95;7.05;;;3.40;99.90;;;;;;5071109;28;20281;-38
2021/04/09 01:54:04;;;;;;;7.45;6.15;;;3.50;99.90;;;;;;5071013;28;20575;-38
2021/04/09 01:56:32;;;;;;;7.97;5.53;;;3.50;99.90;;;;;;5070903;28;20277;-38
2021/04/09 01:59:00;;;;;;;17.93;7.57;;;3.40;99.90;;;;;;5070128;28;20285;-38
2021/04/09 02:01:28;;;;;;;7.53;6.22;;;3.40;99.90;;;;;;5070688;28;20249;-38
2021/04/09 02:03:55;;;;;;;7.97;6.85;;;3.30;99.90;;;;;;5070748;28;20211;-39
2021/04/09 02:06:23;;;;;;;7.32;6.45;;;3.50;99.90;;;;;;5070647;28;20268;-39
2021/04/09 02:08:51;;;;;;;12.27;7.53;;;3.50;99.90;;;;;;5070615;28;20199;-39
2021/04/09 02:11:19;;;;;;;10.35;7.57;;;3.50;99.90;;;;;;5070529;28;20336;-38
2021/04/09 02:13:49;;;;;;;12.63;6.75;;;3.40;99.90;;;;;;5070527;28;20222;-38
2021/04/09 02:16:18;;;;;;;7.55;6.20;;;3.50;99.90;;;;;;5070756;28;20190;-38
2021/04/09 02:18:45;;;;;;;8.07;6.03;;;3.50;99.90;;;;;;5070670;28;20210;-38
2021/04/09 02:21:12;;;;;;;9.30;6.25;;;3.50;99.90;;;;;;5070396;28;20190;-39
2021/04/09 02:23:39;;;;;;;12.35;7.75;;;3.60;99.90;;;;;;5070332;28;20219;-37
2021/04/09 02:26:06;;;;;;;8.63;7.18;;;3.60;99.90;;;;;;5070245;28;20576;-40
2021/04/09 02:28:34;;;;;;;10.77;6.50;;;3.70;99.90;;;;;;5070569;28;20203;-38
2021/04/09 02:31:06;;;;;;;8.77;7.30;;;3.70;99.90;;;;;;5070648;28;20199;-38
2021/04/09 02:33:34;;;;;;;7.80;6.70;;;3.60;99.90;;;;;;5070322;28;20637;-38
2021/04/09 02:36:08;;;;;;;7.45;6.70;;;3.70;99.90;;;;;;5070471;28;20296;-38
2021/04/09 02:38:36;;;;;;;7.03;6.20;;;3.60;99.90;;;;;;5070479;28;20684;-39
2021/04/09 02:41:03;;;;;;;8.45;7.35;;;3.60;99.90;;;;;;5070571;28;20620;-38
2021/04/09 02:43:31;;;;;;;10.60;7.38;;;3.60;99.90;;;;;;5070191;28;20261;-38
2021/04/09 02:45:58;;;;;;;8.48;5.50;;;3.60;99.90;;;;;;5067035;28;20205;-38
2021/04/09 02:48:28;;;;;;;16.17;7.30;;;3.50;99.90;;;;;;5069897;28;20707;-38
2021/04/09 02:50:58;;;;;;;10.02;7.38;;;3.40;99.90;;;;;;5070406;28;20281;-38
2021/04/09 02:53:29;;;;;;;8.57;7.05;;;3.30;99.90;;;;;;5070670;28;20218;-40
2021/04/09 02:55:59;;;;;;;9.18;6.32;;;3.30;99.90;;;;;;5070075;28;20194;-39
2021/04/09 02:58:27;;;;;;;8.98;7.05;;;3.30;99.90;;;;;;5070245;28;20259;-39
2021/04/09 03:00:54;;;;;;;7.40;6.70;;;3.30;99.90;;;;;;5070198;28;20558;-38
2021/04/09 03:03:22;;;;;;;7.80;6.85;;;3.30;99.90;;;;;;5069951;28;20229;-39
2021/04/09 03:05:50;;;;;;;12.85;6.95;;;3.30;99.90;;;;;;5070052;28;20677;-38
2021/04/09 03:08:18;;;;;;;13.98;8.60;;;3.30;99.90;;;;;;5069376;28;20316;-38
2021/04/09 03:10:45;;;;;;;13.40;7.07;;;3.40;99.90;;;;;;5070227;28;20206;-38
2021/04/09 03:13:13;;;;;;;9.18;7.82;;;3.50;99.90;;;;;;5069690;28;20222;-38
2021/04/09 03:15:43;;;;;;;11.02;7.40;;;3.50;99.90;;;;;;5070185;28;20194;-38
2021/04/09 03:18:12;;;;;;;11.47;6.83;;;3.50;99.90;;;;;;5073687;28;20215;-38
2021/04/09 03:20:40;;;;;;;7.53;6.75;;;3.50;99.90;;;;;;5073988;28;20202;-39
2021/04/09 03:23:08;;;;;;;9.75;6.97;;;3.60;99.90;;;;;;5073690;28;20275;-39
2021/04/09 03:25:36;;;;;;;7.47;6.50;;;3.60;99.90;;;;;;5074294;28;20229;-38
2021/04/09 03:28:03;;;;;;;11.45;7.55;;;3.60;99.90;;;;;;5074133;28;20194;-38
2021/04/09 03:30:31;;;;;;;10.70;6.85;;;3.70;99.90;;;;;;5073890;28;20199;-40
2021/04/09 03:32:58;;;;;;;9.10;6.53;;;3.70;99.90;;;;;;5073942;28;20215;-40
2021/04/09 03:35:25;;;;;;;12.07;6.90;;;3.70;99.90;;;;;;5073974;28;20238;-39
2021/04/09 03:37:53;;;;;;;8.27;7.18;;;3.60;99.90;;;;;;5072290;28;20199;-39
2021/04/09 03:40:20;;;;;;;7.95;6.38;;;3.60;99.90;;;;;;5073954;28;20260;-38
2021/04/09 03:42:47;;;;;;;9.50;6.67;;;3.70;99.90;;;;;;5073179;28;20235;-39
2021/04/09 03:45:14;;;;;;;16.38;8.25;;;3.70;99.90;;;;;;5073462;28;20256;-38
2021/04/09 03:47:42;;;;;;;10.95;7.78;;;3.70;99.90;;;;;;5073512;28;20210;-39
2021/04/09 03:50:09;;;;;;;10.07;7.38;;;3.80;99.90;;;;;;5073539;28;20195;-39
2021/04/09 03:52:37;;;;;;;15.30;7.05;;;3.80;99.90;;;;;;5073028;28;20736;-37
2021/04/09 03:55:06;;;;;;;11.75;6.43;;;3.80;99.90;;;;;;5073351;28;20219;-37
2021/04/09 03:57:33;;;;;;;8.25;6.80;;;3.80;99.90;;;;;;5073511;28;20199;-37
2021/04/09 04:00:00;;;;;;;14.82;7.07;;;3.80;99.90;;;;;;5073636;28;20199;-38
2021/04/09 04:02:27;;;;;;;8.90;6.40;;;3.80;99.90;;;;;;5073224;28;20242;-37
2021/04/09 04:04:54;;;;;;;8.93;6.72;;;3.70;99.90;;;;;;5072873;28;20282;-38
2021/04/09 04:07:21;;;;;;;13.10;7.43;;;3.70;99.90;;;;;;5073326;28;20206;-37
2021/04/09 04:09:48;;;;;;;10.88;6.95;;;3.70;99.90;;;;;;5073316;28;20264;-39
2021/04/09 04:12:14;;;;;;;8.20;7.40;;;3.70;99.90;;;;;;5072781;28;20229;-39
2021/04/09 04:14:41;;;;;;;12.65;6.70;;;3.70;99.90;;;;;;5072942;28;20206;-39
2021/04/09 04:17:08;;;;;;;10.95;6.80;;;3.60;99.90;;;;;;5073010;28;20298;-38
2021/04/09 04:19:35;;;;;;;12.95;7.55;;;3.70;99.90;;;;;;5072853;28;20222;-39
2021/04/09 04:22:03;;;;;;;9.18;6.95;;;3.60;99.90;;;;;;5072820;28;20230;-38
2021/04/09 04:24:29;;;;;;;9.48;7.38;;;3.70;99.90;;;;;;5073073;28;20219;-40
2021/04/09 04:26:56;;;;;;;10.25;7.28;;;3.70;99.90;;;;;;5072748;28;20195;-39
2021/04/09 04:29:23;;;;;;;9.25;6.80;;;3.70;99.90;;;;;;5071763;28;20599;-39
2021/04/09 04:31:50;;;;;;;9.50;7.60;;;3.70;99.90;;;;;;5072538;28;20654;-39
2021/04/09 04:34:16;;;;;;;8.88;6.95;;;3.80;99.90;;;;;;5072761;28;20225;-38
2021/04/09 04:36:44;;;;;;;15.45;7.85;;;3.70;99.90;;;;;;5072627;28;20229;-39
2021/04/09 04:39:11;;;;;;;9.52;8.07;;;3.80;99.90;;;;;;5072758;28;20194;-39
2021/04/09 04:41:38;;;;;;;9.45;8.18;;;3.80;99.90;;;;;;5072298;28;20575;-40
2021/04/09 04:44:06;;;;;;;13.05;7.63;;;3.90;99.90;;;;;;5072381;28;20217;-38
2021/04/09 04:46:33;;;;;;;10.90;7.85;;;3.90;99.90;;;;;;5070916;28;20198;-38
2021/04/09 04:49:00;;;;;;;11.47;7.77;;;3.90;99.90;;;;;;5072345;28;20195;-39
2021/04/09 04:51:27;;;;;;;8.32;7.32;;;3.90;99.90;;;;;;5072268;28;20566;-39
2021/04/09 04:53:53;;;;;;;13.30;7.78;;;3.90;99.90;;;;;;5072156;28;20618;-39
2021/04/09 04:56:21;;;;;;;10.38;6.95;;;3.90;99.90;;;;;;5072127;28;20286;-39
2021/04/09 04:58:47;;;;;;;12.23;7.40;;;3.90;99.90;;;;;;5072453;28;20628;-39
2021/04/09 05:01:14;;;;;;;10.52;8.18;;;3.90;99.90;;;;;;5072346;28;20198;-39
2021/04/09 05:03:42;;;;;;;8.65;6.88;;;4.10;99.90;;;;;;5071913;28;20745;-39
2021/04/09 05:06:09;;;;;;;14.02;9.38;;;4.10;99.90;;;;;;5072084;28;20230;-38
2021/04/09 05:08:36;;;;;;;14.32;6.78;;;4.20;99.90;;;;;;5071474;28;20225;-39
2021/04/09 05:11:03;;;;;;;11.85;9.48;;;4.20;99.90;;;;;;5071865;28;20202;-40
2021/04/09 05:13:30;;;;;;;11.02;7.75;;;4.20;99.90;;;;;;5074811;22;20255;-36
2021/04/09 05:15:57;;;;;;;17.85;8.95;;;4.30;99.90;;;;;;5031215;28;20606;-36
2021/04/09 05:18:24;;;;;;;10.57;6.85;;;4.40;99.90;;;;;;5032107;28;20192;-36
2021/04/09 05:20:50;;;;;;;9.30;8.15;;;4.40;99.90;;;;;;5032774;28;20796;-35
2021/04/09 05:23:17;;;;;;;10.38;7.38;;;4.40;99.90;;;;;;5035772;28;20220;-36
2021/04/09 05:25:44;;;;;;;11.07;7.32;;;4.50;99.90;;;;;;5052042;28;20237;-35
2021/04/09 05:28:10;;;;;;;12.10;8.57;;;4.50;99.90;;;;;;5051747;28;20474;-36
2021/04/09 05:30:38;;;;;;;8.80;6.60;;;4.60;99.90;;;;;;5051631;28;20256;-36
2021/04/09 05:33:05;;;;;;;10.68;7.03;;;4.60;99.90;;;;;;5046058;28;20215;-37
2021/04/09 05:35:32;;;;;;;9.40;6.57;;;4.60;99.90;;;;;;5048146;28;20200;-36
2021/04/09 05:37:58;;;;;;;12.43;7.93;;;4.70;99.90;;;;;;5051276;28;20226;-35
2021/04/09 05:40:26;;;;;;;13.27;7.93;;;4.80;99.90;;;;;;5050948;28;20289;-36
2021/04/09 05:42:56;;;;;;;11.82;8.05;;;4.80;99.90;;;;;;5050840;28;20612;-36
2021/04/09 05:45:24;;;;;;;11.80;7.60;;;4.80;99.90;;;;;;5049939;28;20211;-37
2021/04/09 05:47:52;;;;;;;8.10;7.28;;;4.90;99.90;;;;;;5051179;28;20231;-35
2021/04/09 05:50:19;;;;;;;14.93;8.85;;;4.90;99.90;;;;;;5051041;28;20199;-37
2021/04/09 05:52:46;;;;;;;12.23;8.10;;;5.00;99.90;;;;;;5050737;28;20207;-36
2021/04/09 05:55:14;;;;;;;8.23;7.45;;;5.00;99.90;;;;;;5050723;28;20282;-37
2021/04/09 05:57:40;;;;;;;9.65;7.18;;;4.90;99.90;;;;;;5050904;28;20203;-36
2021/04/09 06:00:12;;;;;;;8.70;7.75;;;5.00;99.90;;;;;;5050978;28;20690;-36
2021/04/09 06:02:39;;;;;;;8.50;7.28;;;5.00;99.90;;;;;;5049299;28;20681;-36
2021/04/09 06:05:10;;;;;;;14.10;8.00;;;5.10;99.90;;;;;;5050559;28;20207;-37
2021/04/09 06:07:37;;;;;;;8.07;7.05;;;5.20;99.90;;;;;;5051087;28;20647;-36
2021/04/09 06:10:05;;;;;;;13.52;7.43;;;5.30;99.90;;;;;;5051050;28;20279;-37
2021/04/09 06:12:32;;;;;;;8.95;7.75;;;5.30;99.90;;;;;;5050498;28;20570;-36
2021/04/09 06:14:59;;;;;;;11.57;7.43;;;5.30;99.90;;;;;;5050546;28;20775;-35
2021/04/09 06:17:26;;;;;;;11.70;7.63;;;5.30;99.90;;;;;;5050935;28;20195;-35
2021/04/09 06:19:53;;;;;;;11.80;8.18;;;5.50;99.90;;;;;;5050964;28;20286;-36
2021/04/09 06:22:21;;;;;;;11.52;7.53;;;5.50;99.90;;;;;;5050558;28;20751;-36
2021/04/09 06:24:48;;;;;;;10.05;8.10;;;5.60;99.90;;;;;;5050559;28;20226;-36
2021/04/09 06:27:14;;;;;;;10.45;7.30;;;5.80;99.90;;;;;;5050579;28;20682;-36
2021/04/09 06:29:42;;;;;;;10.15;7.38;;;5.70;99.90;;;;;;5050521;28;20191;-36
2021/04/09 06:32:09;;;;;;;11.35;7.63;;;5.80;99.90;;;;;;5050084;28;20740;-36
2021/04/09 06:34:35;;;;;;;9.52;7.28;;;5.80;99.90;;;;;;5050589;28;20744;-36
2021/04/09 06:37:03;;;;;;;9.82;7.78;;;5.90;99.90;;;;;;5050488;28;20514;-35
2021/04/09 06:39:30;;;;;;;9.75;7.85;;;6.10;99.90;;;;;;5050373;28;20191;-36
2021/04/09 06:41:57;;;;;;;12.38;7.75;;;6.10;99.90;;;;;;5049993;28;20241;-36
2021/04/09 06:44:24;;;;;;;13.65;8.60;;;6.20;99.90;;;;;;5050304;28;20736;-37
2021/04/09 06:46:51;;;;;;;11.63;8.57;;;6.20;99.90;;;;;;5050069;28;20203;-37
2021/04/09 06:49:18;;;;;;;14.48;7.97;;;6.20;99.90;;;;;;5050287;28;20203;-36
2021/04/09 06:51:46;;;;;;;11.75;6.88;;;6.20;99.90;;;;;;5049309;28;20195;-36
2021/04/09 06:54:16;;;;;;;9.77;7.30;;;6.30;99.90;;;;;;5050189;28;20247;-36
2021/04/09 06:56:45;;;;;;;9.00;6.78;;;6.30;99.90;;;;;;5050179;28;20203;-35
2021/04/09 06:59:16;;;;;;;13.10;7.47;;;6.30;99.90;;;;;;5050233;28;20195;-36
2021/04/09 07:01:45;;;;;;;13.98;7.43;;;6.30;99.90;;;;;;5049950;28;20234;-35
2021/04/09 07:04:12;;;;;;;15.93;7.90;;;6.40;99.90;;;;;;5050057;28;20230;-37
2021/04/09 07:06:39;;;;;;;9.02;7.18;;;6.60;99.90;;;;;;5049902;28;20222;-36
2021/04/09 07:09:07;;;;;;;19.85;8.50;;;6.70;99.90;;;;;;5049534;28;20199;-36
2021/04/09 07:11:37;;;;;;;17.23;8.10;;;6.60;99.90;;;;;;5050168;28;20191;-36
2021/04/09 07:14:05;;;;;;;8.65;7.13;;;6.70;99.90;;;;;;5050056;28;20654;-38
2021/04/09 07:16:33;;;;;;;10.90;6.78;;;6.90;99.90;;;;;;5049932;28;20227;-36
2021/04/09 07:19:03;;;;;;;7.40;6.40;;;6.90;99.90;;;;;;5050203;28;20223;-36
2021/04/09 07:21:32;;;;;;;9.93;7.28;;;7.00;99.90;;;;;;5050350;28;20252;-36
2021/04/09 07:24:19;;;;;;;14.85;9.32;;;7.00;99.90;;;;;;5050778;28;20237;-35
2021/04/09 07:26:48;;;;;;;10.00;7.55;;;7.20;99.90;;;;;;5049807;28;20242;-36
2021/04/09 07:29:41;;;;;;;8.23;7.38;;;7.30;99.90;;;;;;5049723;28;20227;-37
2021/04/09 07:32:25;;;;;;;10.40;6.72;;;7.20;99.90;;;;;;5046496;28;20246;-36
2021/04/09 07:34:53;;;;;;;11.18;7.30;;;7.40;99.90;;;;;;5042727;28;20219;-35
2021/04/09 07:37:21;;;;;;;10.50;6.82;;;7.40;99.90;;;;;;5049566;28;20568;-35
2021/04/09 07:39:53;;;;;;;7.80;7.10;;;7.40;99.90;;;;;;5049293;28;20200;-35
2021/04/09 07:42:28;;;;;;;10.50;6.55;;;7.60;99.90;;;;;;5048715;28;20231;-36
2021/04/09 07:44:59;;;;;;;10.32;6.72;;;7.60;99.90;;;;;;5029642;28;20216;-36
2021/04/09 07:47:26;;;;;;;11.13;6.45;;;7.70;99.90;;;;;;5036142;28;20203;-36
2021/04/09 07:50:00;;;;;;;11.55;6.70;;;7.80;99.90;;;;;;5049592;28;20191;-36
2021/04/09 07:52:38;;;;;;;8.50;6.88;;;7.80;99.90;;;;;;5049646;28;20192;-37
2021/04/09 07:55:20;;;;;;;12.05;8.02;;;7.90;99.90;;;;;;5049304;28;20234;-36
2021/04/09 07:57:48;;;;;;;7.97;6.93;;;8.10;99.90;;;;;;5050101;28;20259;-36
2021/04/09 08:00:19;;;;;;;11.68;7.97;;;8.30;99.90;;;;;;5046294;28;20632;-37
2021/04/09 08:02:45;;;;;;;8.38;6.97;;;8.40;99.90;;;;;;5045385;28;20592;-36
2021/04/09 08:05:15;;;;;;;8.13;7.30;;;8.30;99.90;;;;;;5048112;28;20199;-35
2021/04/09 08:07:42;;;;;;;9.93;6.90;;;8.20;99.90;;;;;;5050363;28;20195;-37
2021/04/09 08:10:10;;;;;;;13.05;8.52;;;8.40;99.90;;;;;;5049231;28;20209;-35
2021/04/09 08:12:38;;;;;;;13.45;7.93;;;8.40;99.90;;;;;;5048073;28;20215;-36
2021/04/09 08:15:20;;;;;;;11.18;7.65;;;8.50;99.90;;;;;;5051391;28;20276;-36
2021/04/09 08:17:58;;;;;;;15.07;8.25;;;8.50;99.90;;;;;;5052553;28;20203;-36
2021/04/09 08:20:25;;;;;;;10.55;9.00;;;8.90;99.90;;;;;;5052523;28;20671;-36
2021/04/09 08:22:52;;;;;;;9.95;7.40;;;8.80;99.90;;;;;;5052703;28;20215;-38
2021/04/09 08:25:21;;;;;;;10.02;8.07;;;8.90;99.90;;;;;;5052375;28;20232;-37
2021/04/09 08:27:48;;;;;;;9.68;8.18;;;9.00;99.90;;;;;;5052579;28;20222;-37
2021/04/09 08:30:16;;;;;;;9.52;8.40;;;9.10;99.90;;;;;;5052545;28;20193;-35
2021/04/09 08:32:46;;;;;;;14.02;8.48;;;9.00;99.90;;;;;;5052312;28;20685;-36
2021/04/09 08:35:14;;;;;;;9.75;8.18;;;9.00;99.90;;;;;;5050067;28;20200;-36
2021/04/09 08:37:48;;;;;;;14.50;7.95;;;9.10;99.90;;;;;;5053899;28;20396;-35
2021/04/09 08:40:20;;;;;;;13.68;8.52;;;9.30;99.90;;;;;;5050486;28;20199;-34
2021/04/09 08:42:48;;;;;;;11.65;8.93;;;9.40;99.90;;;;;;5052006;28;20213;-33
2021/04/09 08:45:15;;;;;;;11.55;7.85;;;9.40;99.90;;;;;;5052480;28;20649;-33
2021/04/09 08:47:45;;;;;;;9.93;8.90;;;9.50;99.90;;;;;;5052299;28;20293;-33
2021/04/09 08:50:13;;;;;;;14.38;9.57;;;9.50;99.90;;;;;;5050557;28;20203;-34
2021/04/09 08:52:43;;;;;;;13.85;8.35;;;9.50;99.90;;;;;;5052556;28;20237;-33
2021/04/09 08:55:19;;;;;;;15.60;9.73;;;9.60;99.90;;;;;;5048804;28;20372;-33
2021/04/09 08:57:46;;;;;;;11.13;9.07;;;9.80;99.90;;;;;;5048386;28;20295;-33
2021/04/09 09:00:18;;;;;;;34.35;11.77;;;9.90;99.90;;;;;;5042257;28;20198;-33
2021/04/09 09:02:50;;;;;;;16.92;8.25;;;9.90;99.90;;;;;;5050961;28;20212;-33
2021/04/09 09:05:19;;;;;;;16.65;9.43;;;9.80;99.90;;;;;;5051955;28;20193;-33
2021/04/09 09:08:06;;;;;;;30.77;11.05;;;10.00;99.90;;;;;;5049511;28;20680;-33
2021/04/09 09:10:54;;;;;;;11.95;9.05;;;10.20;99.90;;;;;;5051653;28;20203;-34
2021/04/09 09:13:31;;;;;;;10.95;8.10;;;10.20;99.90;;;;;;5051909;28;20222;-33
2021/04/09 09:16:11;;;;;;;10.48;8.98;;;10.20;99.90;;;;;;5050543;28;20220;-33
2021/04/09 09:18:53;;;;;;;18.95;9.23;;;10.30;99.90;;;;;;5051902;28;20206;-34
2021/04/09 09:21:37;;;;;;;25.30;11.27;;;10.30;99.90;;;;;;5050576;28;20197;-34
2021/04/09 09:24:16;;;;;;;8.95;7.03;;;10.60;99.90;;;;;;5049125;28;20230;-33
2021/04/09 09:26:44;;;;;;;11.23;7.95;;;10.50;99.90;;;;;;5048496;28;20629;-33
2021/04/09 09:29:22;;;;;;;9.30;7.28;;;10.60;99.90;;;;;;5051240;28;20284;-33
2021/04/09 09:31:58;;;;;;;8.07;6.70;;;10.90;99.90;;;;;;5051947;28;20710;-33
2021/04/09 09:34:39;;;;;;;7.63;6.40;;;11.30;99.90;;;;;;5050999;28;20654;-34
2021/04/09 09:37:08;;;;;;;12.15;6.70;;;11.60;99.90;;;;;;5049989;28;20276;-33
2021/04/09 09:39:36;;;;;;;12.27;6.68;;;11.80;99.90;;;;;;5051174;28;20726;-33
2021/04/09 09:42:04;;;;;;;7.57;6.45;;;11.90;99.90;;;;;;5050952;28;20197;-34
2021/04/09 09:44:48;;;;;;;6.82;5.68;;;11.80;99.90;;;;;;5047576;28;20213;-35
2021/04/09 09:47:20;;;;;;;7.13;5.38;;;11.50;99.90;;;;;;5048549;28;20253;-33
2021/04/09 09:50:19;;;;;;;6.55;5.93;;;11.30;99.90;;;;;;5050788;28;20205;-35
2021/04/09 09:52:49;;;;;;;8.77;6.07;;;11.70;99.90;;;;;;5045660;28;20190;-34
2021/04/09 09:55:19;;;;;;;6.20;5.07;;;11.90;99.90;;;;;;5049843;28;20220;-34
2021/04/09 09:57:51;;;;;;;6.68;5.10;;;12.30;99.90;;;;;;5051043;28;20570;-34
2021/04/09 10:00:34;;;;;;;6.05;4.93;;;12.60;99.90;;;;;;5051074;28;20301;-34
2021/04/09 10:03:18;;;;;;;7.85;5.32;;;12.50;99.90;;;;;;5050178;28;20242;-35
2021/04/09 10:05:48;;;;;;;5.60;4.55;;;12.50;99.90;;;;;;5050778;28;20281;-35
2021/04/09 10:08:16;;;;;;;6.18;5.20;;;12.30;99.90;;;;;;5049190;28;20195;-33
2021/04/09 10:10:49;;;;;;;5.32;4.72;;;12.20;99.90;;;;;;5049976;28;20666;-33
2021/04/09 10:13:24;;;;;;;5.57;4.10;;;12.20;99.90;;;;;;5048301;28;20219;-33
2021/04/09 10:15:54;;;;;;;6.53;4.07;;;12.30;99.90;;;;;;5050278;28;20267;-34
2021/04/09 10:18:21;;;;;;;6.57;4.55;;;12.40;99.90;;;;;;5047474;28;20198;-33
2021/04/09 10:20:50;;;;;;;5.40;3.97;;;12.20;99.90;;;;;;5045912;28;20582;-34
2021/04/09 10:23:22;;;;;;;5.38;4.32;;;12.60;99.90;;;;;;5048983;28;20231;-34
2021/04/09 10:25:52;;;;;;;5.25;3.80;;;12.50;99.90;;;;;;5049545;28;20240;-33
2021/04/09 10:28:20;;;;;;;4.63;3.35;;;12.50;99.90;;;;;;5044340;28;20207;-34
2021/04/09 10:30:52;;;;;;;3.30;3.00;;;12.20;99.90;;;;;;5049096;28;20237;-33
2021/04/09 10:33:20;;;;;;;4.45;3.17;;;12.50;99.90;;;;;;5045183;28;20242;-34
2021/04/09 10:35:48;;;;;;;4.57;3.50;;;12.30;99.90;;;;;;5045032;28;20203;-34
2021/04/09 10:38:17;;;;;;;5.65;3.40;;;12.30;99.90;;;;;;5049328;28;20198;-34
2021/04/09 10:40:52;;;;;;;4.50;2.97;;;12.50;99.90;;;;;;5042870;28;20275;-34
2021/04/09 10:43:30;;;;;;;2.85;2.63;;;12.50;99.90;;;;;;5048994;28;20229;-34
2021/04/09 10:46:11;;;;;;;3.13;2.80;;;12.20;99.90;;;;;;5053919;23;20583;-84
2021/04/09 10:48:39;;;;;;;5.10;3.17;;;12.40;99.90;;;;;;4979834;28;20225;-83
2021/04/09 10:51:08;;;;;;;3.15;2.78;;;12.60;99.90;;;;;;4978183;28;20224;-83
2021/04/09 10:53:35;;;;;;;3.30;3.00;;;12.80;99.90;;;;;;4971126;28;20190;-81
2021/04/09 10:56:04;;;;;;;4.18;3.58;;;12.60;99.90;;;;;;4974272;28;20202;-83
2021/04/09 10:58:31;;;;;;;8.18;2.92;;;12.70;99.90;;;;;;5019631;22;20224;-36
2021/04/09 11:00:58;;;;;;;3.50;2.47;;;12.60;99.90;;;;;;5033358;28;20195;-36
2021/04/09 11:03:26;;;;;;;3.75;3.17;;;12.50;99.90;;;;;;5040170;28;20215;-39
2021/04/09 11:05:53;;;;;;;5.90;2.83;;;12.40;99.90;;;;;;5037725;28;20250;-36
2021/04/09 11:08:32;;;;;;;9.35;4.38;;;12.50;99.90;;;;;;5055572;28;20290;-38
2021/04/09 11:11:03;;;;;;;3.70;3.30;;;12.80;99.90;;;;;;5056777;22;20717;-40
2021/04/09 11:13:32;;;;;;;3.67;3.03;;;13.10;99.90;;;;;;5025226;28;20286;-38
2021/04/09 11:15:58;;;;;;;4.47;3.30;;;13.30;99.90;;;;;;5026485;28;20283;-39
2021/04/09 11:18:51;;;;;;;4.35;3.63;;;13.10;99.90;;;;;;5029097;28;20203;-39
2021/04/09 11:21:46;;;;;;;4.43;3.45;;;13.20;99.90;;;;;;5040994;28;20258;-39
2021/04/09 11:24:15;;;;;;;5.07;3.63;;;13.10;99.90;;;;;;5028353;28;20861;-40
2021/04/09 11:26:43;;;;;;;4.45;3.13;;;13.30;99.90;;;;;;5029171;28;20778;-40
2021/04/09 11:29:10;;;;;;;3.80;3.08;;;13.00;99.90;;;;;;5029231;28;20782;-38
2021/04/09 11:31:37;;;;;;;4.55;3.40;;;13.20;99.90;;;;;;5028869;28;20679;-38
2021/04/09 11:34:09;;;;;;;3.28;2.70;;;13.20;99.90;;;;;;5020158;28;20200;-41
2021/04/09 11:36:41;;;;;;;4.70;3.28;;;13.30;99.90;;;;;;5025416;28;20679;-38
2021/04/09 11:39:11;;;;;;;6.35;3.67;;;12.90;99.90;;;;;;5031049;28;20208;-40
2021/04/09 11:41:40;;;;;;;5.00;3.72;;;13.10;99.90;;;;;;5031295;28;20235;-38
2021/04/09 11:44:30;;;;;;;4.30;3.08;;;13.10;99.90;;;;;;5027227;28;20216;-40
2021/04/09 11:47:22;;;;;;;3.90;3.55;;;13.60;99.90;;;;;;5032440;28;20575;-38
2021/04/09 11:50:01;;;;;;;3.70;3.40;;;13.50;99.90;;;;;;5028172;28;20679;-40
2021/04/09 11:52:29;;;;;;;4.15;3.75;;;13.40;99.90;;;;;;5032668;28;20210;-37
2021/04/09 11:54:55;;;;;;;4.32;3.92;;;13.40;99.90;;;;;;5031703;28;20196;-37
2021/04/09 11:57:24;;;;;;;3.42;3.10;;;13.60;99.90;;;;;;5029287;28;20188;-38
2021/04/09 11:59:52;;;;;;;3.70;3.40;;;13.70;99.90;;;;;;5032162;28;20830;-38
2021/04/09 12:02:22;;;;;;;4.70;3.65;;;14.20;99.90;;;;;;5031381;28;20216;-37
2021/04/09 12:04:49;;;;;;;9.40;5.03;;;14.10;99.90;;;;;;5033356;28;20219;-38
2021/04/09 12:07:18;;;;;;;4.70;3.85;;;13.90;99.90;;;;;;5033323;28;20231;-40
2021/04/09 12:09:49;;;;;;;5.75;4.70;;;13.60;99.90;;;;;;5031864;28;20204;-40
2021/04/09 12:12:16;;;;;;;4.35;3.95;;;13.60;99.90;;;;;;5033159;28;20238;-41
2021/04/09 12:14:46;;;;;;;4.43;3.30;;;13.80;99.90;;;;;;5032629;28;20219;-40
2021/04/09 12:17:15;;;;;;;5.00;4.22;;;13.90;99.90;;;;;;5032766;28;20569;-36
2021/04/09 12:19:43;;;;;;;4.45;3.40;;;14.00;99.90;;;;;;5032143;28;20597;-38
2021/04/09 12:22:11;;;;;;;5.28;3.97;;;13.40;99.90;;;;;;5027630;28;20258;-39
2021/04/09 12:24:38;;;;;;;3.20;3.00;;;13.10;99.90;;;;;;5030111;28;20271;-39
2021/04/09 12:27:06;;;;;;;4.32;3.55;;;13.10;99.90;;;;;;5032475;28;20581;-39
2021/04/09 12:29:33;;;;;;;4.45;3.78;;;13.40;99.90;;;;;;5029633;28;20287;-39
2021/04/09 12:32:02;;;;;;;3.67;3.35;;;14.10;99.90;;;;;;5029402;28;20216;-39
2021/04/09 12:34:29;;;;;;;3.22;3.03;;;14.50;99.90;;;;;;5032206;28;20271;-39
2021/04/09 12:36:56;;;;;;;4.82;3.15;;;14.70;99.90;;;;;;5030641;28;20188;-38
2021/04/09 12:39:24;;;;;;;2.67;2.47;;;14.00;99.90;;;;;;5027758;28;20204;-40
2021/04/09 12:41:53;;;;;;;3.22;2.50;;;14.20;99.90;;;;;;5027048;28;20793;-39
2021/04/09 12:44:19;;;;;;;6.35;3.05;;;14.00;99.90;;;;;;5030274;28;20228;-38
2021/04/09 12:46:48;;;;;;;6.72;3.08;;;13.80;99.90;;;;;;5031199;28;20192;-38
2021/04/09 12:49:16;;;;;;;2.95;2.67;;;13.80;99.90;;;;;;5030164;28;20200;-42
2021/04/09 12:51:46;;;;;;;3.92;3.00;;;14.10;99.90;;;;;;5034365;28;20238;-36
2021/04/09 12:54:27;;;;;;;5.05;3.97;;;14.30;99.90;;;;;;5028518;28;20674;-37
2021/04/09 12:56:54;;;;;;;4.03;3.72;;;13.90;99.90;;;;;;5027432;28;20200;-39
2021/04/09 12:59:22;;;;;;;7.75;4.32;;;13.40;99.90;;;;;;5030832;28;20222;-40
2021/04/09 13:01:49;;;;;;;3.67;3.38;;;13.40;99.90;;;;;;5029972;28;20888;-40
2021/04/09 13:04:16;;;;;;;3.72;3.42;;;13.30;99.90;;;;;;5029568;28;20687;-40